createdAt,value
2023-05-02T00:01:19.372Z,50.61
2023-05-02T00:03:46.586Z,54.96
2023-05-02T00:06:13.565Z,51.93
2023-05-02T00:08:40.529Z,53.73
2023-05-02T00:11:07.215Z,46.98
2023-05-02T00:13:33.920Z,52.02
2023-05-02T00:16:00.585Z,47.06
2023-05-02T00:18:27.476Z,51.02
2023-05-02T00:20:56.068Z,50.64
2023-05-02T00:23:22.960Z,49.21
2023-05-02T00:25:50.257Z,47.63
2023-05-02T00:28:16.951Z,49.75
2023-05-02T00:30:47.280Z,46.88
2023-05-02T00:33:15.327Z,49.04
2023-05-02T00:35:42.261Z,47.15
2023-05-02T00:38:09.531Z,48.88
2023-05-02T00:40:54.168Z,45.68
2023-05-02T00:43:21.303Z,45.81
2023-05-02T00:45:48.930Z,46.12
2023-05-02T00:48:18.055Z,45.87
2023-05-02T00:50:44.810Z,45.88
2023-05-02T00:53:11.964Z,46.47
2023-05-02T00:55:38.895Z,49.75
2023-05-02T00:58:09.506Z,51.29
2023-05-02T01:01:04.223Z,49.24
2023-05-02T01:03:42.412Z,46.96
2023-05-02T01:06:38.897Z,46.44
2023-05-02T01:09:24.098Z,45.59
2023-05-02T01:11:57.195Z,50.01
2023-05-02T01:14:28.312Z,47.07
2023-05-02T01:16:58.829Z,48.68
2023-05-02T01:19:35.857Z,47.07
2023-05-02T01:22:08.030Z,48.94
2023-05-02T01:25:01.180Z,50.35
2023-05-02T01:27:43.425Z,46.66
2023-05-02T01:30:12.400Z,46.81
2023-05-02T01:32:43.754Z,47.39
2023-05-02T01:35:11.536Z,48.00
2023-05-02T01:37:41.253Z,47.56
2023-05-02T01:40:10.290Z,49.32
2023-05-02T01:42:38.239Z,49.73
2023-05-02T01:45:08.252Z,46.79
2023-05-02T01:47:37.843Z,48.29
2023-05-02T01:50:07.899Z,48.44
2023-05-02T01:52:35.586Z,45.41
2023-05-02T01:55:05.633Z,45.82
2023-05-02T01:57:32.759Z,48.57
2023-05-02T02:00:01.672Z,50.99
2023-05-02T02:02:30.490Z,47.95
2023-05-02T02:04:59.762Z,50.59
2023-05-02T02:07:26.723Z,45.98
2023-05-02T02:09:53.724Z,48.95
2023-05-02T02:12:40.313Z,48.88
2023-05-02T02:15:26.588Z,47.02
2023-05-02T02:18:00.982Z,50.85
2023-05-02T02:20:30.304Z,49.32
2023-05-02T02:22:59.042Z,45.68
2023-05-02T02:25:27.133Z,46.33
2023-05-02T02:27:54.336Z,47.13
2023-05-02T02:30:21.271Z,47.50
2023-05-02T02:32:48.351Z,48.19
2023-05-02T02:35:15.118Z,45.76
2023-05-02T02:37:46.876Z,45.55
2023-05-02T02:40:31.729Z,45.64
2023-05-02T02:43:24.032Z,48.87
2023-05-02T02:46:13.903Z,50.65
2023-05-02T02:49:09.389Z,52.75
2023-05-02T02:51:46.298Z,47.93
2023-05-02T02:54:41.479Z,45.91
2023-05-02T02:57:38.244Z,44.61
2023-05-02T03:00:19.483Z,47.04
2023-05-02T03:02:48.515Z,48.12
2023-05-02T03:05:15.973Z,44.09
2023-05-02T03:07:43.168Z,50.98
2023-05-02T03:10:11.077Z,48.22
2023-05-02T03:12:40.158Z,45.31
2023-05-02T03:15:14.520Z,44.60
2023-05-02T03:17:42.186Z,46.57
2023-05-02T03:20:09.238Z,45.01
2023-05-02T03:22:36.474Z,45.94
2023-05-02T03:25:03.708Z,46.60
2023-05-02T03:27:32.158Z,47.19
2023-05-02T03:30:01.251Z,45.76
2023-05-02T03:32:29.949Z,47.39
2023-05-02T03:34:58.626Z,46.67
2023-05-02T03:37:30.401Z,47.27
2023-05-02T03:39:59.627Z,46.30
2023-05-02T03:42:27.194Z,46.93
2023-05-02T03:44:54.073Z,45.46
2023-05-02T03:47:20.904Z,45.50
2023-05-02T03:49:48.876Z,44.56
2023-05-02T03:52:16.031Z,46.21
2023-05-02T03:54:44.024Z,46.03
2023-05-02T03:57:10.986Z,46.62
2023-05-02T03:59:41.699Z,47.16
2023-05-02T04:02:16.878Z,45.11
2023-05-02T04:04:47.696Z,45.06
2023-05-02T04:07:19.538Z,45.29
2023-05-02T04:09:51.340Z,44.89
2023-05-02T04:12:18.074Z,45.50
2023-05-02T04:14:48.678Z,46.13
2023-05-02T04:17:16.376Z,44.61
2023-05-02T04:19:48.954Z,48.38
2023-05-02T04:22:16.920Z,45.62
2023-05-02T04:24:48.747Z,46.47
2023-05-02T04:27:16.045Z,45.53
2023-05-02T04:29:43.985Z,47.32
2023-05-02T04:32:38.035Z,44.71
2023-05-02T04:35:06.224Z,45.23
2023-05-02T04:37:33.252Z,49.85
2023-05-02T04:40:00.874Z,45.38
2023-05-02T04:42:30.702Z,46.39
2023-05-02T04:45:11.678Z,44.72
2023-05-02T04:47:40.055Z,44.36
2023-05-02T04:50:08.163Z,49.34
2023-05-02T04:52:36.185Z,45.79
2023-05-02T04:55:03.184Z,49.33
2023-05-02T04:57:29.997Z,47.42
2023-05-02T04:59:59.739Z,43.54
2023-05-02T05:02:28.273Z,47.00
2023-05-02T05:04:56.994Z,48.54
2023-05-02T05:07:23.901Z,47.32
2023-05-02T05:09:53.454Z,48.01
2023-05-02T05:12:22.620Z,51.71
2023-05-02T05:14:50.623Z,45.27
2023-05-02T05:17:18.550Z,44.86
2023-05-02T05:19:45.439Z,44.37
2023-05-02T05:22:12.315Z,45.87
2023-05-02T05:24:39.481Z,43.58
2023-05-02T05:27:06.737Z,44.79
2023-05-02T05:29:33.495Z,46.92
2023-05-02T05:32:00.372Z,44.16
2023-05-02T05:34:28.445Z,43.87
2023-05-02T05:36:58.586Z,46.18
2023-05-02T05:39:25.626Z,45.45
2023-05-02T05:41:54.933Z,45.38
2023-05-02T05:44:23.260Z,46.54
2023-05-02T05:46:50.041Z,45.41
2023-05-02T05:49:19.110Z,44.09
2023-05-02T05:51:47.726Z,49.27
2023-05-02T05:54:17.468Z,47.22
2023-05-02T05:56:45.172Z,45.78
2023-05-02T05:59:15.681Z,44.50
2023-05-02T06:01:42.796Z,46.00
2023-05-02T06:04:09.960Z,49.10
2023-05-02T06:06:40.626Z,46.53
2023-05-02T06:09:08.331Z,47.62
2023-05-02T06:11:38.099Z,47.48
2023-05-02T06:14:05.233Z,47.25
2023-05-02T06:16:32.111Z,46.53
2023-05-02T06:18:58.997Z,44.81
2023-05-02T06:21:26.302Z,45.70
2023-05-02T06:23:53.504Z,45.17
2023-05-02T06:26:22.224Z,45.95
2023-05-02T06:28:49.037Z,47.13
2023-05-02T06:31:16.510Z,46.89
2023-05-02T06:33:43.544Z,46.14
2023-05-02T06:36:10.966Z,44.52
2023-05-02T06:38:37.958Z,45.14
2023-05-02T06:41:04.733Z,43.32
2023-05-02T06:43:31.780Z,43.09
2023-05-02T06:45:59.165Z,42.66
2023-05-02T06:48:26.001Z,42.50
2023-05-02T06:50:53.969Z,43.56
2023-05-02T06:53:20.923Z,42.78
2023-05-02T06:55:49.483Z,44.29
2023-05-02T06:58:16.472Z,44.15
2023-05-02T07:00:43.327Z,42.97
2023-05-02T07:03:11.344Z,42.48
2023-05-02T07:05:39.064Z,46.01
2023-05-02T07:08:06.336Z,45.71
2023-05-02T07:10:33.412Z,43.39
2023-05-02T07:13:00.410Z,44.27
2023-05-02T07:15:27.897Z,44.12
2023-05-02T07:17:55.031Z,43.42
2023-05-02T07:20:21.794Z,44.54
2023-05-02T07:22:48.546Z,44.90
2023-05-02T07:25:15.762Z,45.02
2023-05-02T07:27:42.619Z,46.72
2023-05-02T07:30:10.100Z,45.12
2023-05-02T07:32:38.121Z,44.22
2023-05-02T07:35:05.104Z,45.08
2023-05-02T07:37:35.916Z,44.63
2023-05-02T07:40:03.778Z,43.31
2023-05-02T07:42:31.583Z,43.81
2023-05-02T07:44:59.762Z,43.15
2023-05-02T07:47:27.189Z,44.63
2023-05-02T07:49:55.791Z,41.68
2023-05-02T07:52:23.385Z,40.28
2023-05-02T07:54:51.324Z,39.33
2023-05-02T07:57:18.750Z,40.11
2023-05-02T07:59:45.937Z,39.77
2023-05-02T08:02:14.031Z,43.08
2023-05-02T08:04:41.331Z,40.30
2023-05-02T08:07:08.385Z,40.35
2023-05-02T08:09:35.194Z,42.12
2023-05-02T08:12:03.445Z,40.54
2023-05-02T08:14:30.298Z,41.38
2023-05-02T08:16:57.626Z,40.39
2023-05-02T08:19:25.095Z,41.07
2023-05-02T08:21:53.575Z,40.99
2023-05-02T08:24:20.459Z,40.38
2023-05-02T08:26:47.300Z,39.95
2023-05-02T08:29:14.137Z,39.32
2023-05-02T08:31:41.576Z,40.98
2023-05-02T08:34:08.717Z,42.23
2023-05-02T08:36:37.345Z,39.76
2023-05-02T08:39:04.182Z,40.15
2023-05-02T08:41:31.457Z,40.75
2023-05-02T08:44:00.541Z,40.22
2023-05-02T08:46:28.600Z,39.42
2023-05-02T08:48:59.356Z,39.05
2023-05-02T08:51:29.676Z,40.99
2023-05-02T08:53:58.398Z,39.62
2023-05-02T08:56:26.304Z,38.11
2023-05-02T08:58:53.000Z,38.20
2023-05-02T09:01:24.210Z,40.72
2023-05-02T09:03:52.481Z,40.77
2023-05-02T09:06:22.052Z,38.66
2023-05-02T09:08:50.726Z,40.68
2023-05-02T09:11:18.243Z,39.88
2023-05-02T09:13:49.013Z,41.31
2023-05-02T09:16:27.167Z,42.02
2023-05-02T09:18:58.752Z,43.34
2023-05-02T09:21:27.373Z,42.93
2023-05-02T09:24:01.435Z,44.05
2023-05-02T09:26:32.381Z,43.43
2023-05-02T09:29:01.435Z,40.96
2023-05-02T09:34:11.866Z,43.05
2023-05-02T09:36:43.873Z,42.31
2023-05-02T09:39:18.862Z,42.97
2023-05-02T09:41:48.995Z,41.56
2023-05-02T09:44:22.376Z,41.33
2023-05-02T09:46:54.415Z,42.03
2023-05-02T09:49:40.323Z,41.18
2023-05-02T09:52:15.203Z,42.01
2023-05-02T09:54:42.617Z,36.62
2023-05-02T09:57:11.058Z,35.96
2023-05-02T09:59:41.164Z,38.39
2023-05-02T10:02:11.206Z,36.68
2023-05-02T10:04:40.013Z,36.53
2023-05-02T10:07:10.929Z,37.28
2023-05-02T10:09:43.181Z,36.41
2023-05-02T10:12:10.417Z,36.23
2023-05-02T10:14:43.915Z,35.99
2023-05-02T10:17:28.185Z,35.24
2023-05-02T10:20:03.937Z,37.26
2023-05-02T10:22:33.581Z,35.44
2023-05-02T10:25:02.276Z,34.48
2023-05-02T10:27:33.207Z,35.55
2023-05-02T10:30:02.706Z,35.67
2023-05-02T10:32:37.961Z,34.34
2023-05-02T10:35:06.811Z,35.26
2023-05-02T10:37:36.461Z,34.38
2023-05-02T10:40:03.824Z,36.52
2023-05-02T10:42:31.713Z,33.76
2023-05-02T10:45:00.646Z,34.80
2023-05-02T10:47:27.754Z,36.15
2023-05-02T10:50:00.139Z,33.43
2023-05-02T10:52:33.164Z,33.78
2023-05-02T10:55:23.609Z,34.98
2023-05-02T10:58:08.627Z,34.44
2023-05-02T11:00:35.537Z,37.85
2023-05-02T11:03:02.584Z,36.10
2023-05-02T11:05:29.922Z,37.68
2023-05-02T11:08:29.232Z,36.85
2023-05-02T11:10:56.481Z,38.89
2023-05-02T11:13:52.377Z,38.88
2023-05-02T11:16:19.288Z,39.24
2023-05-02T11:18:59.512Z,37.57
2023-05-02T11:21:33.101Z,37.08
2023-05-02T11:24:41.696Z,34.83
2023-05-02T11:27:39.310Z,36.46
2023-05-02T11:30:09.158Z,34.69
2023-05-02T11:32:53.556Z,37.37
2023-05-02T11:35:21.374Z,36.54
2023-05-02T11:37:54.553Z,34.85
2023-05-02T11:40:22.076Z,33.70
2023-05-02T11:42:49.013Z,33.78
2023-05-02T11:45:16.081Z,32.71
2023-05-02T11:47:43.729Z,33.16
2023-05-02T11:50:10.954Z,34.68
2023-05-02T11:52:42.143Z,32.29
2023-05-02T11:55:12.089Z,35.01
2023-05-02T11:57:40.133Z,34.70
2023-05-02T12:00:14.079Z,34.21
2023-05-02T12:02:43.154Z,33.38
2023-05-02T12:05:13.310Z,33.33
2023-05-02T12:07:41.249Z,34.42
2023-05-02T12:10:09.773Z,33.29
2023-05-02T12:12:38.670Z,33.02
2023-05-02T12:15:06.522Z,34.25
2023-05-02T12:17:36.907Z,32.92
2023-05-02T12:20:05.268Z,33.96
2023-05-02T12:22:32.893Z,34.28
2023-05-02T12:25:00.383Z,39.49
2023-05-02T12:27:27.844Z,40.86
2023-05-02T12:29:55.044Z,42.98
2023-05-02T12:32:30.083Z,46.08
2023-05-02T12:34:58.231Z,45.11
2023-05-02T12:37:27.319Z,46.43
2023-05-02T12:39:55.578Z,48.93
2023-05-02T12:42:25.562Z,45.61
2023-05-02T12:44:52.819Z,46.70
2023-05-02T12:47:21.249Z,44.60
2023-05-02T12:49:53.270Z,44.11
2023-05-02T12:52:21.514Z,42.04
2023-05-02T12:54:48.661Z,43.25
2023-05-02T12:57:26.474Z,41.62
2023-05-02T12:59:54.475Z,41.54
2023-05-02T13:02:21.702Z,41.88
2023-05-02T13:04:48.405Z,42.53
2023-05-02T13:07:15.253Z,41.16
2023-05-02T13:09:41.896Z,42.36
2023-05-02T13:12:09.501Z,41.85
2023-05-02T13:14:36.346Z,44.37
2023-05-02T13:17:04.519Z,43.59
2023-05-02T13:19:32.030Z,39.78
2023-05-02T13:21:58.983Z,41.92
2023-05-02T13:24:25.769Z,44.92
2023-05-02T13:26:52.492Z,43.71
2023-05-02T13:29:19.760Z,42.67
2023-05-02T13:31:46.647Z,41.72
2023-05-02T13:34:13.767Z,45.01
2023-05-02T13:36:46.238Z,41.43
2023-05-02T13:39:14.074Z,41.90
2023-05-02T13:41:42.068Z,39.99
2023-05-02T13:44:09.844Z,39.96
2023-05-02T13:46:37.895Z,41.31
2023-05-02T13:49:05.067Z,42.56
2023-05-02T13:51:34.921Z,45.84
2023-05-02T13:54:01.867Z,44.98
2023-05-02T13:56:29.227Z,44.08
2023-05-02T13:58:56.106Z,43.88
2023-05-02T14:01:24.166Z,43.68
2023-05-02T14:03:51.000Z,43.32
2023-05-02T14:06:18.891Z,43.39
2023-05-02T14:08:45.992Z,43.06
2023-05-02T14:11:13.349Z,43.61
2023-05-02T14:13:40.354Z,42.11
2023-05-02T14:16:07.734Z,40.92
2023-05-02T14:18:34.598Z,40.89
2023-05-02T14:21:01.276Z,42.54
2023-05-02T14:23:30.930Z,42.38
2023-05-02T14:25:58.667Z,41.30
2023-05-02T14:28:27.730Z,44.03
2023-05-02T14:30:54.510Z,40.45
2023-05-02T14:33:21.321Z,42.32
2023-05-02T14:35:49.337Z,40.28
2023-05-02T14:38:16.171Z,42.33
2023-05-02T14:40:42.892Z,40.34
2023-05-02T14:43:09.676Z,41.28
2023-05-02T14:45:36.563Z,41.13
2023-05-02T14:48:03.954Z,43.43
2023-05-02T14:50:30.924Z,42.38
2023-05-02T14:52:57.936Z,42.53
2023-05-02T14:55:24.687Z,44.45
2023-05-02T14:57:51.357Z,45.89
2023-05-02T15:00:18.425Z,42.82
2023-05-02T15:02:45.212Z,47.59
2023-05-02T15:05:13.236Z,44.81
2023-05-02T15:07:40.241Z,42.83
2023-05-02T15:10:07.463Z,45.30
2023-05-02T15:12:34.742Z,47.25
2023-05-02T15:15:01.571Z,45.20
2023-05-02T15:17:28.288Z,44.85
2023-05-02T15:19:57.884Z,45.11
2023-05-02T15:22:26.144Z,46.50
2023-05-02T15:24:52.860Z,45.72
2023-05-02T15:27:19.737Z,44.32
2023-05-02T15:29:46.472Z,44.99
2023-05-02T15:32:13.539Z,45.89
2023-05-02T15:34:40.356Z,45.17
2023-05-02T15:37:07.116Z,42.39
2023-05-02T15:39:33.869Z,46.61
2023-05-02T15:42:04.852Z,45.45
2023-05-02T15:44:38.897Z,44.96
2023-05-02T15:47:06.326Z,48.03
2023-05-02T15:49:33.808Z,47.49
2023-05-02T15:52:02.637Z,47.82
2023-05-02T15:54:30.084Z,45.91
2023-05-02T15:56:56.926Z,46.17
2023-05-02T15:59:23.628Z,44.23
2023-05-02T16:01:50.443Z,43.93
2023-05-02T16:04:17.185Z,43.32
2023-05-02T16:06:44.725Z,45.27
2023-05-02T16:09:12.908Z,47.78
2023-05-02T16:11:40.392Z,46.70
2023-05-02T16:14:07.146Z,43.99
2023-05-02T16:16:34.452Z,43.51
2023-05-02T16:19:01.299Z,46.97
2023-05-02T16:21:28.722Z,45.66
2023-05-02T16:23:55.589Z,48.41
2023-05-02T16:26:22.381Z,45.54
2023-05-02T16:28:49.120Z,50.53
2023-05-02T16:31:16.161Z,45.04
2023-05-02T16:33:43.039Z,45.77
2023-05-02T16:36:10.458Z,47.22
2023-05-02T16:38:37.285Z,45.90
2023-05-02T16:41:07.230Z,45.41
2023-05-02T16:43:34.292Z,44.76
2023-05-02T16:46:02.316Z,45.64
2023-05-02T16:48:30.279Z,43.51
2023-05-02T16:50:57.498Z,45.14
2023-05-02T16:53:24.986Z,47.77
2023-05-02T16:55:52.487Z,43.42
2023-05-02T16:58:19.466Z,42.74
2023-05-02T17:00:46.239Z,42.30
2023-05-02T17:03:13.064Z,42.86
2023-05-02T17:05:39.933Z,43.09
2023-05-02T17:08:08.565Z,44.58
2023-05-02T17:10:36.234Z,41.27
2023-05-02T17:13:03.585Z,42.50
2023-05-02T17:15:30.848Z,42.06
2023-05-02T17:17:57.605Z,43.39
2023-05-02T17:20:24.454Z,43.19
2023-05-02T17:22:51.267Z,42.47
2023-05-02T17:25:18.193Z,41.67
2023-05-02T17:27:45.521Z,42.53
2023-05-02T17:30:13.674Z,46.56
2023-05-02T17:32:40.535Z,46.94
2023-05-02T17:35:07.719Z,45.61
2023-05-02T17:37:34.905Z,43.40
2023-05-02T17:40:02.349Z,43.11
2023-05-02T17:42:29.822Z,44.41
2023-05-02T17:44:56.589Z,43.84
2023-05-02T17:47:23.487Z,44.03
2023-05-02T17:49:51.402Z,45.28
2023-05-02T17:52:18.193Z,46.23
2023-05-02T17:54:45.783Z,44.86
2023-05-02T17:57:14.824Z,47.41
2023-05-02T17:59:41.829Z,46.36
2023-05-02T18:02:10.247Z,47.07
2023-05-02T18:04:37.735Z,46.74
2023-05-02T18:07:06.127Z,46.25
2023-05-02T18:09:33.134Z,45.46
2023-05-02T18:12:00.879Z,47.55
2023-05-02T18:14:28.023Z,49.11
2023-05-02T18:16:54.745Z,47.31
2023-05-02T18:19:22.989Z,46.96
2023-05-02T18:21:50.157Z,48.08
2023-05-02T18:24:16.948Z,46.06
2023-05-02T18:26:43.920Z,44.81
2023-05-02T18:29:10.548Z,46.87
2023-05-02T18:31:40.313Z,47.07
2023-05-02T18:34:07.812Z,46.56
2023-05-02T18:36:34.685Z,47.49
2023-05-02T18:39:01.814Z,49.28
2023-05-02T18:41:28.743Z,44.76
2023-05-02T18:43:56.386Z,45.57
2023-05-02T18:46:24.312Z,44.64
2023-05-02T18:48:51.640Z,45.96
2023-05-02T18:51:18.618Z,47.86
2023-05-02T18:53:45.745Z,45.26
2023-05-02T18:56:14.443Z,47.77
2023-05-02T18:58:42.262Z,47.12
2023-05-02T19:01:16.077Z,47.61
2023-05-02T19:03:43.790Z,46.24
2023-05-02T19:06:10.973Z,45.46
2023-05-02T19:08:38.503Z,47.70
2023-05-02T19:11:05.849Z,46.08
2023-05-02T19:13:32.752Z,44.63
2023-05-02T19:16:01.017Z,45.54
2023-05-02T19:18:28.291Z,49.80
2023-05-02T19:20:55.071Z,50.44
2023-05-02T19:23:22.123Z,47.67
2023-05-02T19:25:49.161Z,44.57
2023-05-02T19:28:16.997Z,46.43
2023-05-02T19:30:46.279Z,44.39
2023-05-02T19:33:13.647Z,46.81
2023-05-02T19:35:40.507Z,45.93
2023-05-02T19:38:07.517Z,45.03
2023-05-02T19:40:34.230Z,46.18
2023-05-02T19:43:01.178Z,46.78
2023-05-02T19:45:28.033Z,45.10
2023-05-02T19:47:54.830Z,45.52
2023-05-02T19:50:21.846Z,44.91
2023-05-02T19:52:50.899Z,46.69
2023-05-02T19:55:18.602Z,46.35
2023-05-02T19:57:46.028Z,45.79
2023-05-02T20:00:14.097Z,44.31
2023-05-02T20:02:41.111Z,44.55
2023-05-02T20:05:08.576Z,44.25
2023-05-02T20:07:35.417Z,43.33
2023-05-02T20:10:02.959Z,44.06
2023-05-02T20:12:30.224Z,44.80
2023-05-02T20:14:57.017Z,43.56
2023-05-02T20:17:24.280Z,45.84
2023-05-02T20:19:51.198Z,45.52
2023-05-02T20:22:18.261Z,44.65
2023-05-02T20:24:44.967Z,43.75
2023-05-02T20:27:11.778Z,44.92
2023-05-02T20:29:38.754Z,43.84
2023-05-02T20:32:05.776Z,45.08
2023-05-02T20:34:35.741Z,44.37
2023-05-02T20:37:06.743Z,46.52
2023-05-02T20:39:33.604Z,44.95
2023-05-02T20:42:00.307Z,42.94
2023-05-02T20:44:27.032Z,43.89
2023-05-02T20:46:54.338Z,44.56
2023-05-02T20:49:21.774Z,45.84
2023-05-02T20:51:49.916Z,44.88
2023-05-02T20:54:16.646Z,46.95
2023-05-02T20:56:43.609Z,47.90
2023-05-02T20:59:11.502Z,46.41
2023-05-02T21:01:38.681Z,44.16
2023-05-02T21:04:05.562Z,44.30
2023-05-02T21:06:32.905Z,46.18
2023-05-02T21:09:01.840Z,44.11
2023-05-02T21:11:28.687Z,44.61
2023-05-02T21:13:55.479Z,43.42
2023-05-02T21:16:22.438Z,43.57
2023-05-02T21:18:49.577Z,43.87
2023-05-02T21:21:16.386Z,44.70
2023-05-02T21:23:43.735Z,43.11
2023-05-02T21:26:10.594Z,42.84
2023-05-02T21:28:38.728Z,43.06
2023-05-02T21:31:07.307Z,42.96
2023-05-02T21:33:34.338Z,43.71
2023-05-02T21:36:01.502Z,43.92
2023-05-02T21:38:29.071Z,45.02
2023-05-02T21:40:55.949Z,45.00
2023-05-02T21:43:22.716Z,45.05
2023-05-02T21:45:50.324Z,45.87
2023-05-02T21:48:17.530Z,45.21
2023-05-02T21:50:45.070Z,44.10
2023-05-02T21:53:11.822Z,46.58
2023-05-02T21:55:41.572Z,44.57
2023-05-02T21:58:10.083Z,43.61
2023-05-02T22:00:38.724Z,44.58
2023-05-02T22:03:08.732Z,42.83
2023-05-02T22:05:37.459Z,44.00
2023-05-02T22:08:04.413Z,43.19
2023-05-02T22:10:31.302Z,46.14
2023-05-02T22:12:58.010Z,43.79
2023-05-02T22:15:25.018Z,46.67
2023-05-02T22:17:52.214Z,47.82
2023-05-02T22:20:19.310Z,47.17
2023-05-02T22:22:46.061Z,45.92
2023-05-02T22:25:12.953Z,43.82
2023-05-02T22:27:40.116Z,43.79
2023-05-02T22:30:09.079Z,46.82
2023-05-02T22:32:36.375Z,49.48
2023-05-02T22:35:07.629Z,46.60
2023-05-02T22:37:34.435Z,43.16
2023-05-02T22:40:01.400Z,43.07
2023-05-02T22:42:28.312Z,42.88
2023-05-02T22:44:55.354Z,43.42
2023-05-02T22:47:22.066Z,43.30
2023-05-02T22:49:49.434Z,41.84
2023-05-02T22:52:18.296Z,46.65
2023-05-02T22:54:45.118Z,51.17
2023-05-02T22:57:11.908Z,45.29
2023-05-02T22:59:39.040Z,49.02
2023-05-02T23:02:06.071Z,45.26
2023-05-02T23:04:33.515Z,43.32
2023-05-02T23:07:00.293Z,42.69
2023-05-02T23:09:27.062Z,45.32
2023-05-02T23:11:54.096Z,46.59
2023-05-02T23:14:23.100Z,44.52
2023-05-02T23:16:50.213Z,42.17
2023-05-02T23:19:17.195Z,43.36
2023-05-02T23:21:43.925Z,43.36
2023-05-02T23:24:10.913Z,47.21
2023-05-02T23:26:37.685Z,50.02
2023-05-02T23:29:06.359Z,44.29
2023-05-02T23:31:33.634Z,42.93
2023-05-02T23:34:00.990Z,42.45
2023-05-02T23:36:27.860Z,42.49
2023-05-02T23:38:54.758Z,42.81
2023-05-02T23:41:22.311Z,42.34
2023-05-02T23:43:49.609Z,43.65
2023-05-02T23:46:16.688Z,47.47
2023-05-02T23:48:43.451Z,46.41
2023-05-02T23:51:10.162Z,45.22
2023-05-02T23:53:36.865Z,46.55
2023-05-02T23:56:03.757Z,46.72
2023-05-02T23:58:30.523Z,44.85
